Rhine, Georgia
Current Conditions -  °F | °C
As of 8:55 AM on Monday 24 Nov 2014 (Local Time) from KEZM Reporting Station
Thunderstorm Thunderstorm  
Wind Chill: 69°   Ceiling: 6500
Heat Index: 69°   Visibility: 10mi
Dew Point: 69°   Wind: 5mph
Humidity: 100%   Direction: 200°SSW
Pressure: 29.86"   Gusts: NA
Location:  31.99°N, 83.2°W
Report Text: KEZM 241355Z AUTO 20004KT 10SM VCTS BKN065 OVC080 21/21 A2986 RMK AO2 T02060206
Loading
Personal Weather Stations






























Interactive Weather Map New forecast layout! Learn more

10-Day Weather Forecast

Advertisements
Track Severe Weather on mobile